createdAt,value
2018-06-02T00:00:00.466Z,53.99
2018-06-02T00:02:26.719Z,53.55
2018-06-02T00:04:52.982Z,53.30
2018-06-02T00:07:19.218Z,53.91
2018-06-02T00:09:45.464Z,53.40
2018-06-02T00:12:11.740Z,53.72
2018-06-02T00:14:37.999Z,53.40
2018-06-02T00:17:04.241Z,54.58
2018-06-02T00:19:30.532Z,54.29
2018-06-02T00:21:57.585Z,53.71
2018-06-02T00:24:23.828Z,53.76
2018-06-02T00:26:50.339Z,53.94
2018-06-02T00:29:16.603Z,54.17
2018-06-02T00:31:42.859Z,54.59
2018-06-02T00:34:09.128Z,54.67
2018-06-02T00:36:35.377Z,54.72
2018-06-02T00:39:01.628Z,54.75
2018-06-02T00:41:27.957Z,54.99
2018-06-02T00:43:54.210Z,55.13
2018-06-02T00:46:20.506Z,55.12
2018-06-02T00:48:46.796Z,55.26
2018-06-02T00:51:13.082Z,55.55
2018-06-02T00:53:39.323Z,56.01
2018-06-02T00:56:05.611Z,56.27
2018-06-02T00:58:31.882Z,56.03
2018-06-02T01:00:58.171Z,56.11
2018-06-02T01:03:24.443Z,56.37
2018-06-02T01:05:50.691Z,56.48
2018-06-02T01:08:16.962Z,56.39
2018-06-02T01:10:43.241Z,56.27
2018-06-02T01:13:09.493Z,56.45
2018-06-02T01:15:35.751Z,56.36
2018-06-02T01:18:02.007Z,56.41
2018-06-02T01:20:28.243Z,56.21
2018-06-02T01:22:54.496Z,56.36
2018-06-02T01:25:20.788Z,56.37
2018-06-02T01:27:47.058Z,56.65
2018-06-02T01:30:13.310Z,57.07
2018-06-02T01:32:39.574Z,56.70
2018-06-02T01:35:05.826Z,56.63
2018-06-02T01:37:32.066Z,57.06
2018-06-02T01:39:58.393Z,57.07
2018-06-02T01:42:24.806Z,57.00
2018-06-02T01:44:51.058Z,57.06
2018-06-02T01:47:17.326Z,57.31
2018-06-02T01:49:43.579Z,56.93
2018-06-02T01:52:09.816Z,56.92
2018-06-02T01:54:36.142Z,56.97
2018-06-02T01:57:02.390Z,56.92
2018-06-02T01:59:28.698Z,57.46
2018-06-02T02:01:54.970Z,57.46
2018-06-02T02:04:21.226Z,57.53
2018-06-02T02:06:47.475Z,57.67
2018-06-02T02:09:13.747Z,57.46
2018-06-02T02:11:40.006Z,57.47
2018-06-02T02:14:06.276Z,57.60
2018-06-02T02:16:32.552Z,57.61
2018-06-02T02:18:58.826Z,57.41
2018-06-02T02:21:25.067Z,57.28
2018-06-02T02:23:51.350Z,57.50
2018-06-02T02:26:17.629Z,57.46
2018-06-02T02:28:43.932Z,57.72
2018-06-02T02:31:10.236Z,57.75
2018-06-02T02:33:36.480Z,58.06
2018-06-02T02:36:02.723Z,57.76
2018-06-02T02:38:29.003Z,57.44
2018-06-02T02:40:55.264Z,57.40
2018-06-02T02:43:21.519Z,58.24
2018-06-02T02:45:47.818Z,58.64
2018-06-02T02:48:14.063Z,58.59
2018-06-02T02:50:40.387Z,58.61
2018-06-02T02:53:06.752Z,58.34
2018-06-02T02:55:33.007Z,58.71
2018-06-02T02:57:59.244Z,58.43
2018-06-02T03:00:25.515Z,58.42
2018-06-02T03:02:51.739Z,58.39
2018-06-02T03:05:18.017Z,58.50
2018-06-02T03:07:44.292Z,58.75
2018-06-02T03:10:10.535Z,58.90
2018-06-02T03:12:36.775Z,58.97
2018-06-02T03:15:03.071Z,59.04
2018-06-02T03:17:29.309Z,59.44
2018-06-02T03:19:55.557Z,59.56
2018-06-02T03:22:21.854Z,59.75
2018-06-02T03:24:48.098Z,59.58
2018-06-02T03:27:14.343Z,59.59
2018-06-02T03:29:40.628Z,60.00
2018-06-02T03:32:06.887Z,60.18
2018-06-02T03:34:33.124Z,60.07
2018-06-02T03:36:59.394Z,59.51
2018-06-02T03:39:25.638Z,59.97
2018-06-02T03:41:51.966Z,59.96
2018-06-02T03:44:18.238Z,60.52
2018-06-02T03:46:44.471Z,60.88
2018-06-02T03:49:10.706Z,61.63
2018-06-02T03:51:36.986Z,62.03
2018-06-02T03:54:03.243Z,62.04
2018-06-02T03:56:29.483Z,62.02
2018-06-02T03:58:55.768Z,62.24
2018-06-02T04:01:22.006Z,62.65
2018-06-02T04:03:48.282Z,62.48
2018-06-02T04:06:14.547Z,62.59
2018-06-02T04:08:40.781Z,62.25
2018-06-02T04:11:07.013Z,62.06
2018-06-02T04:13:33.298Z,61.64
2018-06-02T04:15:59.536Z,61.81
2018-06-02T04:18:25.815Z,62.45
2018-06-02T04:20:52.103Z,62.48
2018-06-02T04:23:18.374Z,61.92
2018-06-02T04:25:44.611Z,61.82
2018-06-02T04:28:10.906Z,61.70
2018-06-02T04:30:37.175Z,61.52
2018-06-02T04:33:03.419Z,60.90
2018-06-02T04:35:29.695Z,61.28
2018-06-02T04:37:55.935Z,61.21
2018-06-02T04:40:22.203Z,61.69
2018-06-02T04:42:48.475Z,62.00
2018-06-02T04:45:14.731Z,62.34
2018-06-02T04:47:41.008Z,62.16
2018-06-02T04:50:07.300Z,62.28
2018-06-02T04:52:33.551Z,62.39
2018-06-02T04:54:59.813Z,62.35
2018-06-02T04:57:26.077Z,62.68
2018-06-02T04:59:52.320Z,62.76
2018-06-02T05:02:18.561Z,63.18
2018-06-02T05:04:44.856Z,62.67
2018-06-02T05:07:11.095Z,62.23
2018-06-02T05:09:37.334Z,62.14
2018-06-02T05:12:03.599Z,62.07
2018-06-02T05:14:29.873Z,61.40
2018-06-02T05:16:56.110Z,60.92
2018-06-02T05:19:22.383Z,61.58
2018-06-02T05:21:48.623Z,61.61
2018-06-02T05:24:14.864Z,61.55
2018-06-02T05:26:41.146Z,61.56
2018-06-02T05:29:07.441Z,61.16
2018-06-02T05:31:33.695Z,60.94
2018-06-02T05:34:00.079Z,60.83
2018-06-02T05:36:26.415Z,59.72
2018-06-02T05:38:52.651Z,59.78
2018-06-02T05:41:18.962Z,59.67
2018-06-02T05:43:45.260Z,59.36
2018-06-02T05:46:11.491Z,59.30
2018-06-02T05:48:37.797Z,59.46
2018-06-02T05:51:04.100Z,58.92
2018-06-02T05:53:30.357Z,58.38
2018-06-02T05:55:56.639Z,57.49
2018-06-02T05:58:22.880Z,57.83
2018-06-02T06:00:49.124Z,57.19
2018-06-02T06:03:15.587Z,57.67
2018-06-02T06:05:41.835Z,56.92
2018-06-02T06:08:08.185Z,56.80
2018-06-02T06:10:34.466Z,56.57
2018-06-02T06:13:00.699Z,56.33
2018-06-02T06:15:26.969Z,56.65
2018-06-02T06:17:53.233Z,56.64
2018-06-02T06:20:19.495Z,56.46
2018-06-02T06:22:45.736Z,55.48
2018-06-02T06:25:11.999Z,55.93
2018-06-02T06:27:38.248Z,56.22
2018-06-02T06:30:04.519Z,56.47
2018-06-02T06:32:30.839Z,56.32
2018-06-02T06:34:57.079Z,56.17
2018-06-02T06:37:23.385Z,55.80
2018-06-02T06:39:49.646Z,56.03
2018-06-02T06:42:15.882Z,56.48
2018-06-02T06:44:42.228Z,56.58
2018-06-02T06:47:08.515Z,56.14
2018-06-02T06:49:34.828Z,55.79
2018-06-02T06:52:01.091Z,55.59
2018-06-02T06:54:27.378Z,55.83
2018-06-02T06:56:53.965Z,55.73
2018-06-02T06:59:20.204Z,54.86
2018-06-02T07:01:46.475Z,55.00
2018-06-02T07:04:13.863Z,55.60
2018-06-02T07:06:40.123Z,55.34
2018-06-02T07:09:06.463Z,55.66
2018-06-02T07:11:32.703Z,54.79
2018-06-02T07:13:58.948Z,55.19
2018-06-02T07:16:25.245Z,55.29
2018-06-02T07:18:51.482Z,55.63
2018-06-02T07:21:17.744Z,55.21
2018-06-02T07:23:44.012Z,54.34
2018-06-02T07:26:10.360Z,54.54
2018-06-02T07:28:36.626Z,54.60
2018-06-02T07:31:02.907Z,53.30
2018-06-02T07:33:29.152Z,53.61
2018-06-02T07:35:55.398Z,54.13
2018-06-02T07:38:21.670Z,53.54
2018-06-02T07:40:47.944Z,53.15
2018-06-02T07:43:14.193Z,53.62
2018-06-02T07:45:40.478Z,54.52
2018-06-02T07:48:06.725Z,53.87
2018-06-02T07:50:32.959Z,54.65
2018-06-02T07:52:59.259Z,54.51
2018-06-02T07:55:25.482Z,55.21
2018-06-02T07:57:51.731Z,54.88
2018-06-02T08:00:17.998Z,54.97
2018-06-02T08:02:44.236Z,55.10
2018-06-02T08:05:10.466Z,55.16
2018-06-02T08:07:36.747Z,55.22
2018-06-02T08:10:03.013Z,55.47
2018-06-02T08:12:29.251Z,55.35
2018-06-02T08:14:55.552Z,54.80
2018-06-02T08:17:21.798Z,54.47
2018-06-02T08:19:48.048Z,54.03
2018-06-02T08:22:14.322Z,54.35
2018-06-02T08:24:40.600Z,54.76
2018-06-02T08:27:06.843Z,54.86
2018-06-02T08:29:33.119Z,55.32
2018-06-02T08:31:59.359Z,55.17
2018-06-02T08:34:25.604Z,54.86
2018-06-02T08:36:51.867Z,55.46
2018-06-02T08:39:18.147Z,55.36
2018-06-02T08:41:44.396Z,55.63
2018-06-02T08:44:10.717Z,56.25
2018-06-02T08:46:36.958Z,56.31
2018-06-02T08:49:03.191Z,56.71
2018-06-02T08:51:29.476Z,56.45
2018-06-02T08:53:55.735Z,55.86
2018-06-02T08:56:22.009Z,55.58
2018-06-02T08:58:48.304Z,54.83
2018-06-02T09:01:14.543Z,54.73
2018-06-02T09:03:40.791Z,55.06
2018-06-02T09:06:07.069Z,54.94
2018-06-02T09:08:33.314Z,55.67
2018-06-02T09:10:59.543Z,55.18
2018-06-02T09:13:25.815Z,54.85
2018-06-02T09:15:52.077Z,55.10
2018-06-02T09:18:18.327Z,55.63
2018-06-02T09:20:44.611Z,55.56
2018-06-02T09:23:10.852Z,55.01
2018-06-02T09:25:37.113Z,54.77
2018-06-02T09:28:03.441Z,55.19
2018-06-02T09:30:29.702Z,55.59
2018-06-02T09:32:55.938Z,54.57
2018-06-02T09:35:22.222Z,53.33
2018-06-02T09:37:48.466Z,53.54
2018-06-02T09:40:14.747Z,53.06
2018-06-02T09:42:41.018Z,52.22
2018-06-02T09:45:07.263Z,52.22
2018-06-02T09:47:33.520Z,52.26
2018-06-02T09:49:59.797Z,52.17
2018-06-02T09:52:26.026Z,52.64
2018-06-02T09:54:52.263Z,53.46
2018-06-02T09:57:18.523Z,54.23
2018-06-02T09:59:44.784Z,54.76
2018-06-02T10:02:11.015Z,54.63
2018-06-02T10:04:37.325Z,55.15
2018-06-02T10:07:03.625Z,54.95
2018-06-02T10:09:29.879Z,55.43
2018-06-02T10:11:56.173Z,55.33
2018-06-02T10:14:22.407Z,55.55
2018-06-02T10:16:48.703Z,56.06
2018-06-02T10:19:14.969Z,56.20
2018-06-02T10:21:41.212Z,56.05
2018-06-02T10:24:07.470Z,55.68
2018-06-02T10:26:33.742Z,55.55
2018-06-02T10:28:59.996Z,55.76
2018-06-02T10:31:26.250Z,55.35
2018-06-02T10:33:52.606Z,54.98
2018-06-02T10:36:18.846Z,54.15
2018-06-02T10:38:45.143Z,54.40
2018-06-02T10:41:11.407Z,54.52
2018-06-02T10:43:37.664Z,54.83
2018-06-02T10:46:03.894Z,54.41
2018-06-02T10:48:30.193Z,53.58
2018-06-02T10:50:56.439Z,53.58
2018-06-02T10:53:22.675Z,53.47
2018-06-02T10:55:48.950Z,54.03
2018-06-02T10:58:15.199Z,53.26
2018-06-02T11:00:41.430Z,53.16
2018-06-02T11:03:07.715Z,53.09
2018-06-02T11:05:33.958Z,52.57
2018-06-02T11:08:00.209Z,52.15
2018-06-02T11:10:26.484Z,51.21
2018-06-02T11:12:52.767Z,51.30
2018-06-02T11:15:18.990Z,51.86
2018-06-02T11:17:45.282Z,52.83
2018-06-02T11:20:11.523Z,53.01
2018-06-02T11:22:37.760Z,53.13
2018-06-02T11:25:04.044Z,52.08
2018-06-02T11:27:30.287Z,52.34
2018-06-02T11:29:56.531Z,52.72
2018-06-02T11:32:22.798Z,53.41
2018-06-02T11:34:49.031Z,53.76
2018-06-02T11:37:15.272Z,53.41
2018-06-02T11:39:41.606Z,53.59
2018-06-02T11:42:07.863Z,53.26
2018-06-02T11:44:34.095Z,52.96
2018-06-02T11:47:00.368Z,52.66
2018-06-02T11:49:26.610Z,52.63
2018-06-02T11:51:52.838Z,53.16
2018-06-02T11:54:19.107Z,53.77
2018-06-02T11:56:45.340Z,53.65
2018-06-02T11:59:11.579Z,52.95
2018-06-02T12:01:37.856Z,52.52
2018-06-02T12:04:04.126Z,51.67
2018-06-02T12:06:30.419Z,51.61
2018-06-02T12:08:56.694Z,51.71
2018-06-02T12:11:22.946Z,51.76
2018-06-02T12:13:49.253Z,52.83
2018-06-02T12:16:15.507Z,52.91
2018-06-02T12:18:41.734Z,53.67
2018-06-02T12:21:07.975Z,54.03
2018-06-02T12:23:34.262Z,54.45
2018-06-02T12:26:00.499Z,55.11
2018-06-02T12:28:26.805Z,55.24
2018-06-02T12:30:53.052Z,55.72
2018-06-02T12:33:19.294Z,55.95
2018-06-02T12:35:45.582Z,55.99
2018-06-02T12:38:11.856Z,56.52
2018-06-02T12:40:38.101Z,56.61
2018-06-02T12:43:04.366Z,56.84
2018-06-02T12:45:30.637Z,56.48
2018-06-02T12:47:56.886Z,56.56
2018-06-02T12:50:23.143Z,56.32
2018-06-02T12:52:49.411Z,56.12
2018-06-02T12:55:15.675Z,56.32
2018-06-02T12:57:41.906Z,55.98
2018-06-02T13:00:08.196Z,55.77
2018-06-02T13:02:34.444Z,55.12
2018-06-02T13:05:00.691Z,54.60
2018-06-02T13:07:26.981Z,54.39
2018-06-02T13:09:53.217Z,54.22
2018-06-02T13:12:19.447Z,54.47
2018-06-02T13:14:45.715Z,53.63
2018-06-02T13:17:11.952Z,52.70
2018-06-02T13:19:38.179Z,51.97
2018-06-02T13:22:04.431Z,51.04
2018-06-02T13:24:30.692Z,50.03
2018-06-02T13:26:56.943Z,50.25
2018-06-02T13:29:23.227Z,49.76
2018-06-02T13:31:49.473Z,49.88
2018-06-02T13:34:15.702Z,49.92
2018-06-02T13:36:41.995Z,50.47
2018-06-02T13:39:08.231Z,48.52
2018-06-02T13:41:34.487Z,48.57
2018-06-02T13:44:00.768Z,49.00
2018-06-02T13:46:27.043Z,49.09
2018-06-02T13:48:53.299Z,49.13
2018-06-02T13:51:19.565Z,49.60
2018-06-02T13:53:45.807Z,49.03
2018-06-02T13:56:12.034Z,49.46
2018-06-02T13:58:38.306Z,50.02
2018-06-02T14:01:04.534Z,50.02
2018-06-02T14:03:30.768Z,50.27
2018-06-02T14:05:57.070Z,50.36
2018-06-02T14:08:23.327Z,50.90
2018-06-02T14:10:49.563Z,50.36
2018-06-02T14:13:15.817Z,50.18
2018-06-02T14:15:42.041Z,50.49
2018-06-02T14:18:08.286Z,50.55
2018-06-02T14:20:34.535Z,50.54
2018-06-02T14:23:00.766Z,50.32
2018-06-02T14:25:27.015Z,50.36
2018-06-02T14:27:53.278Z,49.88
2018-06-02T14:30:19.501Z,50.64
2018-06-02T14:32:45.750Z,50.85
2018-06-02T14:35:12.020Z,50.90
2018-06-02T14:37:38.273Z,50.39
2018-06-02T14:40:04.514Z,49.92
2018-06-02T14:42:30.775Z,48.99
2018-06-02T14:44:57.035Z,48.48
2018-06-02T14:47:23.287Z,47.64
2018-06-02T14:49:49.555Z,46.22
2018-06-02T14:52:15.793Z,44.30
2018-06-02T14:54:42.035Z,42.85
2018-06-02T14:57:08.499Z,42.44
2018-06-02T14:59:34.954Z,41.68
2018-06-02T15:02:01.261Z,43.50
2018-06-02T15:04:27.518Z,44.19
2018-06-02T15:06:53.757Z,44.66
2018-06-02T15:09:19.980Z,44.26
2018-06-02T15:11:46.238Z,43.42
2018-06-02T15:14:12.454Z,43.29
2018-06-02T15:16:38.670Z,43.32
2018-06-02T15:19:04.974Z,44.20
2018-06-02T15:21:31.202Z,45.00
2018-06-02T15:23:57.430Z,45.99
2018-06-02T15:26:23.913Z,46.64
2018-06-02T15:28:50.171Z,47.32
2018-06-02T15:31:16.591Z,47.59
2018-06-02T15:33:42.823Z,47.77
2018-06-02T15:36:09.059Z,48.27
2018-06-02T15:38:35.286Z,49.54
2018-06-02T15:41:01.574Z,50.13
2018-06-02T15:43:27.942Z,50.28
2018-06-02T15:45:54.216Z,51.20
2018-06-02T15:48:20.507Z,50.03
2018-06-02T15:50:46.760Z,49.54
2018-06-02T15:53:13.002Z,50.19
2018-06-02T15:55:39.290Z,50.39
2018-06-02T15:58:05.523Z,49.67
2018-06-02T16:00:31.751Z,50.14
2018-06-02T16:02:58.022Z,50.11
2018-06-02T16:05:24.242Z,50.28
2018-06-02T16:07:50.503Z,49.55
2018-06-02T16:10:16.758Z,50.09
2018-06-02T16:12:43.005Z,49.46
2018-06-02T16:15:09.387Z,49.33
2018-06-02T16:17:35.672Z,48.65
2018-06-02T16:20:01.904Z,48.46
2018-06-02T16:22:28.121Z,49.09
2018-06-02T16:24:54.538Z,49.08
2018-06-02T16:27:20.811Z,49.27
2018-06-02T16:29:47.039Z,49.13
2018-06-02T16:32:13.321Z,49.47
2018-06-02T16:34:39.566Z,49.73
2018-06-02T16:37:05.791Z,49.92
2018-06-02T16:39:32.040Z,50.53
2018-06-02T16:41:58.272Z,51.08
2018-06-02T16:44:24.511Z,50.84
2018-06-02T16:46:50.797Z,50.74
2018-06-02T16:49:17.011Z,51.18
2018-06-02T16:51:43.230Z,51.30
2018-06-02T16:54:09.482Z,50.86
2018-06-02T16:56:35.707Z,51.00
2018-06-02T16:59:01.942Z,50.95
2018-06-02T17:01:28.207Z,51.29
2018-06-02T17:03:54.434Z,51.14
2018-06-02T17:06:20.709Z,51.55
2018-06-02T17:08:46.927Z,51.87
2018-06-02T17:11:13.238Z,51.67
2018-06-02T17:13:39.466Z,51.81
2018-06-02T17:16:05.722Z,51.78
2018-06-02T17:18:31.946Z,51.69
2018-06-02T17:20:58.202Z,51.73
2018-06-02T17:23:24.467Z,51.79
2018-06-02T17:25:50.712Z,52.29
2018-06-02T17:28:16.947Z,52.19
2018-06-02T17:30:43.210Z,52.42
2018-06-02T17:33:09.469Z,52.30
2018-06-02T17:35:35.690Z,52.66
2018-06-02T17:38:01.984Z,52.59
2018-06-02T17:40:28.219Z,52.62
2018-06-02T17:42:54.461Z,52.87
2018-06-02T17:45:20.729Z,52.98
2018-06-02T17:47:46.973Z,53.28
2018-06-02T17:50:13.215Z,54.20
2018-06-02T17:52:39.492Z,54.10
2018-06-02T17:55:05.785Z,54.26
2018-06-02T17:57:32.040Z,54.06
2018-06-02T17:59:58.338Z,54.23
2018-06-02T18:02:24.568Z,53.94
2018-06-02T18:04:50.802Z,54.03
2018-06-02T18:07:17.067Z,54.23
2018-06-02T18:09:43.307Z,53.92
2018-06-02T18:12:09.567Z,53.50
2018-06-02T18:14:35.830Z,53.57
2018-06-02T18:17:02.069Z,53.59
2018-06-02T18:19:28.315Z,53.53
2018-06-02T18:21:54.611Z,53.71
2018-06-02T18:24:20.858Z,54.19
2018-06-02T18:26:47.092Z,54.57
2018-06-02T18:29:13.371Z,54.87
2018-06-02T18:31:39.610Z,55.14
2018-06-02T18:34:05.847Z,55.35
2018-06-02T18:36:32.136Z,55.78
2018-06-02T18:38:58.376Z,55.89
2018-06-02T18:41:24.611Z,56.13
2018-06-02T18:43:50.886Z,56.36
2018-06-02T18:46:17.119Z,56.44
2018-06-02T18:48:43.356Z,56.27
2018-06-02T18:51:09.642Z,56.19
2018-06-02T18:53:35.956Z,56.06
2018-06-02T18:56:02.203Z,55.89
2018-06-02T18:58:28.554Z,56.11
2018-06-02T19:00:54.920Z,56.25
2018-06-02T19:03:21.142Z,56.45
2018-06-02T19:05:47.429Z,56.28
2018-06-02T19:08:13.706Z,56.40
2018-06-02T19:10:40.011Z,56.60
2018-06-02T19:13:06.278Z,56.38
2018-06-02T19:15:32.519Z,56.63
2018-06-02T19:17:58.754Z,56.74
2018-06-02T19:20:25.106Z,56.94
2018-06-02T19:22:51.374Z,56.96
2018-06-02T19:25:17.619Z,57.16
2018-06-02T19:27:43.894Z,57.24
2018-06-02T19:30:10.166Z,57.26
2018-06-02T19:32:36.412Z,57.50
2018-06-02T19:35:02.751Z,57.47
2018-06-02T19:37:28.996Z,57.49
2018-06-02T19:39:55.290Z,57.49
2018-06-02T19:42:21.566Z,57.59
2018-06-02T19:44:47.808Z,57.46
2018-06-02T19:47:14.058Z,57.58
2018-06-02T19:49:40.418Z,57.74
2018-06-02T19:52:06.671Z,57.83
2018-06-02T19:54:32.915Z,58.07
2018-06-02T19:56:59.200Z,58.04
2018-06-02T19:59:25.490Z,58.15
2018-06-02T20:01:51.766Z,58.26
2018-06-02T20:04:18.051Z,58.12
2018-06-02T20:06:44.347Z,58.28
2018-06-02T20:09:10.619Z,57.94
2018-06-02T20:11:36.890Z,58.27
2018-06-02T20:14:03.138Z,58.50
2018-06-02T20:16:29.390Z,58.60
2018-06-02T20:18:55.679Z,58.51
2018-06-02T20:21:22.198Z,58.56
2018-06-02T20:23:48.599Z,58.78
2018-06-02T20:26:14.882Z,59.13
2018-06-02T20:28:41.145Z,59.21
2018-06-02T20:31:07.378Z,59.61
2018-06-02T20:33:33.918Z,59.51
2018-06-02T20:36:00.138Z,59.58
2018-06-02T20:38:26.571Z,59.90
2018-06-02T20:40:52.913Z,59.74
2018-06-02T20:43:19.302Z,59.68
2018-06-02T20:45:45.572Z,59.56
2018-06-02T20:48:11.870Z,59.46
2018-06-02T20:50:38.172Z,59.52
2018-06-02T20:53:04.423Z,58.78
2018-06-02T20:55:30.791Z,59.06
2018-06-02T20:57:57.048Z,59.48
2018-06-02T21:00:23.295Z,59.22
2018-06-02T21:02:50.036Z,59.22
2018-06-02T21:05:16.561Z,59.16
2018-06-02T21:07:43.477Z,59.18
2018-06-02T21:10:09.786Z,59.17
2018-06-02T21:12:36.233Z,59.32
2018-06-02T21:15:02.536Z,59.61
2018-06-02T21:17:28.810Z,59.80
2018-06-02T21:19:55.092Z,60.03
2018-06-02T21:22:21.387Z,59.87
2018-06-02T21:24:48.247Z,60.05
2018-06-02T21:27:14.550Z,60.38
2018-06-02T21:29:40.953Z,60.58
2018-06-02T21:32:07.271Z,60.74
2018-06-02T21:34:33.703Z,61.00
2018-06-02T21:36:59.969Z,61.10
2018-06-02T21:39:26.407Z,61.51
2018-06-02T21:41:52.719Z,61.74
2018-06-02T21:44:18.983Z,61.86
2018-06-02T21:46:45.665Z,62.20
2018-06-02T21:49:11.961Z,62.05
2018-06-02T21:51:38.391Z,62.22
2018-06-02T21:54:04.759Z,62.06
2018-06-02T21:56:30.987Z,62.24
2018-06-02T21:58:57.395Z,62.21
2018-06-02T22:01:23.699Z,61.56
2018-06-02T22:03:50.152Z,61.67
2018-06-02T22:06:16.450Z,61.65
2018-06-02T22:08:43.003Z,61.67
2018-06-02T22:11:09.319Z,61.50
2018-06-02T22:13:35.723Z,61.41
2018-06-02T22:16:02.108Z,61.45
2018-06-02T22:18:28.379Z,61.29
2018-06-02T22:20:54.862Z,61.43
2018-06-02T22:23:21.118Z,60.83
2018-06-02T22:25:47.367Z,60.54
2018-06-02T22:28:13.880Z,60.54
2018-06-02T22:30:40.226Z,60.83
2018-06-02T22:33:06.564Z,61.21
2018-06-02T22:35:32.831Z,61.27
2018-06-02T22:37:59.302Z,61.23
2018-06-02T22:40:25.608Z,60.95
2018-06-02T22:42:52.051Z,61.07
2018-06-02T22:45:18.329Z,61.30
2018-06-02T22:47:44.668Z,61.44
2018-06-02T22:50:10.905Z,61.13
2018-06-02T22:52:37.219Z,61.21
2018-06-02T22:55:03.528Z,61.21
2018-06-02T22:57:29.990Z,61.10
2018-06-02T22:59:56.541Z,61.16
2018-06-02T23:02:22.865Z,60.88
2018-06-02T23:04:49.402Z,61.12
2018-06-02T23:07:15.713Z,61.19
2018-06-02T23:09:42.035Z,61.10
2018-06-02T23:12:08.681Z,61.10
2018-06-02T23:14:35.083Z,61.39
2018-06-02T23:17:01.335Z,61.36
2018-06-02T23:19:27.578Z,61.67
2018-06-02T23:21:53.839Z,61.53
2018-06-02T23:24:20.066Z,61.47
2018-06-02T23:26:46.353Z,61.08
2018-06-02T23:29:12.591Z,61.20
2018-06-02T23:31:38.830Z,61.11
2018-06-02T23:34:05.151Z,61.14
2018-06-02T23:36:31.373Z,61.44
2018-06-02T23:38:57.645Z,62.03
2018-06-02T23:41:23.889Z,62.39
2018-06-02T23:43:50.145Z,62.17
2018-06-02T23:46:16.398Z,62.32
2018-06-02T23:48:42.643Z,62.03
2018-06-02T23:51:08.926Z,62.18
2018-06-02T23:53:35.174Z,62.35
2018-06-02T23:56:01.427Z,62.51
2018-06-02T23:58:27.698Z,62.65
